Time;durP1;ratioP1;P1;durP2;ratioP2;P2;SDS_P1;SDS_P2;PMS_P1;PMS_P2;Temp;Humidity;BMP_temperature;BMP_pressure;BME280_temperature;BME280_humidity;BME280_pressure;Samples;Min_cycle;Max_cycle;Signal;HPM_P1;HPM_P2
2022/04/18 00:00:09;;;;;;;33.80;18.10;;;;;;;4.65;62.38;101535.34;5046635;28;20027;-70
2022/04/18 00:02:35;;;;;;;31.88;17.58;;;;;;;4.63;62.51;101524.16;5064731;28;20028;-71
2022/04/18 00:05:00;;;;;;;29.20;17.27;;;;;;;4.64;62.43;101528.47;5064688;28;20032;-72
2022/04/18 00:07:26;;;;;;;34.03;17.05;;;;;;;4.69;62.75;101528.63;5064834;28;20032;-73
2022/04/18 00:09:52;;;;;;;37.53;18.73;;;;;;;4.66;62.69;101526.84;5046722;28;20021;-72
2022/04/18 00:12:18;;;;;;;32.97;16.98;;;;;;;4.67;62.76;101526.00;5065297;28;20087;-72
2022/04/18 00:14:45;;;;;;;30.73;16.33;;;;;;;4.63;62.69;101518.13;5047485;28;20021;-71
2022/04/18 00:17:10;;;;;;;30.25;17.95;;;;;;;4.65;62.71;101526.78;5065685;28;20116;-71
2022/04/18 00:19:39;;;;;;;34.30;16.52;;;;;;;4.64;62.65;101525.91;5047420;28;20044;-72
2022/04/18 00:22:05;;;;;;;27.63;16.63;;;;;;;4.61;62.59;101520.66;5064858;28;20411;-72
2022/04/18 00:24:31;;;;;;;32.50;16.90;;;;;;;4.54;62.51;101511.84;5047423;28;20025;-72
2022/04/18 00:26:56;;;;;;;31.05;16.42;;;;;;;4.56;62.61;101523.06;5046669;28;20044;-72
2022/04/18 00:29:22;;;;;;;29.83;16.85;;;;;;;4.58;62.66;101520.53;5064124;28;20276;-72
2022/04/18 00:31:47;;;;;;;32.20;17.15;;;;;;;4.52;62.55;101520.34;5064477;28;20091;-72
2022/04/18 00:34:14;;;;;;;29.63;15.95;;;;;;;4.47;62.60;101523.59;5064642;28;20029;-71
2022/04/18 00:36:40;;;;;;;29.20;16.35;;;;;;;4.42;62.58;101532.88;5065057;28;20043;-72
2022/04/18 00:39:05;;;;;;;25.67;16.38;;;;;;;4.39;62.62;101529.31;5065118;28;20468;-72
2022/04/18 00:41:30;;;;;;;26.98;15.32;;;;;;;4.38;62.63;101530.13;5047126;28;20029;-72
2022/04/18 00:43:56;;;;;;;27.90;14.80;;;;;;;4.37;62.69;101525.81;5064909;28;20066;-71
2022/04/18 00:46:21;;;;;;;27.95;15.63;;;;;;;4.36;62.68;101527.47;5065334;28;20028;-71
2022/04/18 00:48:47;;;;;;;30.25;15.73;;;;;;;4.34;62.85;101524.84;5046995;28;20021;-72
2022/04/18 00:51:16;;;;;;;27.15;16.08;;;;;;;4.34;62.73;101527.44;5065025;28;20024;-72
2022/04/18 00:53:43;;;;;;;26.88;14.48;;;;;;;4.32;62.70;101528.22;5046671;28;20033;-72
2022/04/18 00:56:12;;;;;;;27.25;15.68;;;;;;;4.29;62.79;101522.97;5064717;28;20024;-72
2022/04/18 00:58:39;;;;;;;27.95;15.18;;;;;;;4.27;62.74;101532.31;5046424;28;20051;-71
2022/04/18 01:01:04;;;;;;;29.83;15.88;;;;;;;4.22;62.80;101530.47;5064123;28;20021;-72
2022/04/18 01:03:30;;;;;;;30.85;15.93;;;;;;;4.19;62.59;101527.78;5063308;28;20043;-72
2022/04/18 01:06:00;;;;;;;33.92;16.30;;;;;;;4.15;62.72;101527.59;5045893;28;20021;-72
2022/04/18 01:08:27;;;;;;;32.55;16.13;;;;;;;4.11;62.83;101523.16;5064778;28;20020;-72
2022/04/18 01:10:53;;;;;;;32.55;16.55;;;;;;;4.07;62.75;101527.34;5064509;28;20043;-72
2022/04/18 01:13:19;;;;;;;25.40;13.48;;;;;;;4.04;62.99;101528.06;5064519;28;20021;-71
2022/04/18 01:15:44;;;;;;;28.63;15.32;;;;;;;3.98;62.80;101522.72;5064425;28;20024;-72
2022/04/18 01:18:09;;;;;;;25.15;13.77;;;;;;;4.00;62.89;101520.19;5064478;28;20021;-71
2022/04/18 01:20:36;;;;;;;27.20;15.18;;;;;;;3.97;63.03;101521.84;5046340;28;20071;-72
2022/04/18 01:23:05;;;;;;;25.83;13.13;;;;;;;3.97;62.91;101516.72;5064268;28;20025;-72
2022/04/18 01:30:58;;;;;;;30.30;17.42;;;;;;;3.86;62.69;101512.88;5064469;28;20059;-73
2022/04/18 01:33:24;;;;;;;25.05;13.38;;;;;;;3.81;62.91;101514.38;5046103;28;20049;-73
2022/04/18 01:35:49;;;;;;;19.20;10.52;;;;;;;3.77;62.97;101515.97;5064276;28;20017;-73
2022/04/18 01:38:15;;;;;;;16.55;8.80;;;;;;;3.75;63.12;101501.31;5064142;28;20020;-73
2022/04/18 01:40:40;;;;;;;16.90;10.75;;;;;;;3.82;62.99;101501.59;5045878;28;20036;-72
2022/04/18 01:43:06;;;;;;;20.88;10.70;;;;;;;3.93;62.91;101501.13;5063863;28;20028;-73
2022/04/18 01:45:32;;;;;;;19.90;11.43;;;;;;;3.96;63.04;101502.09;5045379;28;20100;-72
2022/04/18 01:47:57;;;;;;;23.17;11.07;;;;;;;3.94;62.78;101492.59;5063761;28;20027;-73
2022/04/18 01:50:23;;;;;;;26.90;13.70;;;;;;;3.95;62.64;101502.94;5063600;28;20442;-72
2022/04/18 01:52:48;;;;;;;26.85;12.75;;;;;;;3.89;62.54;101502.72;5064014;28;20032;-73
2022/04/18 01:55:13;;;;;;;23.92;12.27;;;;;;;3.83;62.85;101498.19;5063944;28;20029;-72
2022/04/18 01:57:39;;;;;;;27.17;12.82;;;;;;;3.76;62.91;101498.81;5063640;28;20054;-73
2022/04/18 02:00:05;;;;;;;20.38;11.32;;;;;;;3.66;63.43;101495.00;5063350;28;20105;-73
2022/04/18 02:02:30;;;;;;;21.92;11.82;;;;;;;3.67;63.75;101506.16;5063732;28;20029;-73
2022/04/18 02:04:56;;;;;;;21.15;10.70;;;;;;;3.64;64.11;101504.38;5063648;28;20021;-73
2022/04/18 02:07:21;;;;;;;19.60;10.45;;;;;;;3.57;63.99;101494.66;5063324;28;20044;-72
2022/04/18 02:09:46;;;;;;;17.88;10.25;;;;;;;3.60;63.76;101494.78;5063790;28;20021;-72
2022/04/18 02:12:12;;;;;;;16.30;9.52;;;;;;;3.62;63.63;101503.44;5045507;28;20029;-73
2022/04/18 02:14:37;;;;;;;19.13;10.18;;;;;;;3.57;63.47;101484.38;5063116;28;20025;-73
2022/04/18 02:17:03;;;;;;;21.98;10.52;;;;;;;3.59;63.49;101488.75;5063130;28;20029;-73
2022/04/18 02:19:28;;;;;;;22.58;11.30;;;;;;;3.61;63.15;101496.53;5063061;28;20041;-72
2022/04/18 02:21:53;;;;;;;21.45;11.60;;;;;;;3.58;63.29;101501.53;5063026;28;20052;-71
2022/04/18 02:24:19;;;;;;;22.52;12.05;;;;;;;3.55;63.14;101496.28;5063420;28;20029;-71
2022/04/18 02:26:44;;;;;;;19.27;10.75;;;;;;;3.52;63.18;101493.59;5063465;28;20132;-71
2022/04/18 02:29:09;;;;;;;17.45;10.10;;;;;;;3.47;63.25;101494.31;5062939;28;20021;-71
2022/04/18 02:32:47;;;;;;;18.40;10.10;;;;;;;3.42;63.29;101494.97;5063019;28;20045;-72
2022/04/18 02:34:20;;;;;;;20.27;10.63;;;;;;;3.40;63.31;101492.34;5063474;28;20029;-72
2022/04/18 02:36:45;;;;;;;20.20;10.50;;;;;;;3.32;63.30;101489.44;5064196;28;20028;-72
2022/04/18 02:39:11;;;;;;;19.92;9.60;;;;;;;3.32;63.45;101492.00;5063634;28;20051;-72
2022/04/18 02:41:36;;;;;;;19.08;8.75;;;;;;;3.28;63.41;101481.56;5062915;28;20108;-72
2022/04/18 02:44:02;;;;;;;16.35;9.48;;;;;;;3.30;63.56;101482.53;5062845;28;20416;-71
2022/04/18 02:46:27;;;;;;;20.17;9.18;;;;;;;3.28;63.49;101479.00;5044759;28;20040;-72
2022/04/18 02:48:53;;;;;;;15.57;8.45;;;;;;;3.29;63.47;101483.34;5062444;28;20049;-71
2022/04/18 02:51:19;;;;;;;18.77;9.20;;;;;;;3.30;63.64;101478.28;5062775;28;20397;-70
2022/04/18 02:53:44;;;;;;;16.38;8.88;;;;;;;3.33;63.56;101480.06;5062752;28;20052;-71
2022/04/18 02:56:10;;;;;;;14.82;7.68;;;;;;;3.35;63.74;101475.88;5063450;28;20025;-74
2022/04/18 02:58:35;;;;;;;13.15;8.52;;;;;;;3.38;63.85;101483.69;5066738;28;20025;-72
2022/04/18 03:01:00;;;;;;;18.65;8.43;;;;;;;3.36;63.67;101464.78;5066964;28;20021;-72
2022/04/18 03:03:26;;;;;;;16.75;8.82;;;;;;;3.44;63.49;101476.22;5066683;28;20025;-73
2022/04/18 03:05:51;;;;;;;16.85;8.32;;;;;;;3.49;63.43;101473.84;5066960;28;20085;-72
2022/04/18 03:08:16;;;;;;;14.85;8.25;;;;;;;3.53;63.51;101473.13;5066785;28;20110;-72
2022/04/18 03:13:25;;;;;;;19.90;9.43;;;;;;;3.56;63.24;101470.66;5066882;28;20091;-72
2022/04/18 03:15:51;;;;;;;17.90;8.85;;;;;;;3.55;63.20;101470.63;5066455;28;20017;-72
2022/04/18 03:18:16;;;;;;;18.85;9.20;;;;;;;3.57;63.10;101469.00;5066561;28;20025;-73
2022/04/18 03:20:42;;;;;;;13.93;8.27;;;;;;;3.62;63.11;101466.59;5066351;28;20017;-73
2022/04/18 03:23:07;;;;;;;16.70;8.45;;;;;;;3.67;62.79;101470.22;5066443;28;20017;-72
2022/04/18 03:25:32;;;;;;;16.85;8.63;;;;;;;3.72;62.80;101461.84;5066398;28;20025;-71
2022/04/18 03:27:58;;;;;;;17.67;8.13;;;;;;;3.78;62.65;101461.22;5065576;28;20025;-72
2022/04/18 03:30:23;;;;;;;13.88;8.30;;;;;;;3.84;62.72;101458.88;5065157;28;20078;-72
2022/04/18 03:32:48;;;;;;;17.73;8.25;;;;;;;3.87;62.63;101447.81;5065846;28;20095;-71
2022/04/18 03:35:14;;;;;;;21.23;8.98;;;;;;;3.92;62.36;101451.44;5066333;28;20104;-72
2022/04/18 03:40:23;;;;;;;14.45;7.70;;;;;;;4.02;62.14;101452.66;5066124;28;20059;-72
2022/04/18 03:42:48;;;;;;;18.38;8.85;;;;;;;4.07;62.09;101455.38;5048240;28;20025;-73
2022/04/18 03:45:13;;;;;;;16.02;8.43;;;;;;;4.08;62.02;101452.88;5065632;28;20160;-73
2022/04/18 03:47:39;;;;;;;18.08;7.95;;;;;;;4.09;62.07;101452.03;5047960;28;20044;-72
2022/04/18 03:50:05;;;;;;;16.58;8.50;;;;;;;4.10;61.96;101445.19;5048127;28;20501;-72
2022/04/18 03:52:30;;;;;;;14.20;7.72;;;;;;;4.13;61.80;101445.31;5066506;28;20017;-73
2022/04/18 03:54:56;;;;;;;17.88;8.27;;;;;;;4.06;61.87;101428.78;5066258;28;20024;-71
2022/04/18 03:57:21;;;;;;;13.23;7.85;;;;;;;4.21;61.73;101441.31;5065888;28;20033;-72
2022/04/18 03:59:47;;;;;;;15.18;7.88;;;;;;;4.22;61.52;101437.91;5065524;28;20029;-72
2022/04/18 04:02:13;;;;;;;14.18;8.00;;;;;;;4.22;61.52;101437.91;5065877;28;20040;-72
2022/04/18 04:04:38;;;;;;;14.40;7.95;;;;;;;4.23;61.59;101436.22;5065840;28;20021;-72
2022/04/18 04:07:04;;;;;;;16.95;9.20;;;;;;;4.23;61.39;101438.81;5066000;28;20025;-72
2022/04/18 04:09:30;;;;;;;17.42;8.00;;;;;;;4.18;61.46;101438.66;5064548;28;20100;-72
2022/04/18 04:11:55;;;;;;;15.05;8.05;;;;;;;4.16;61.36;101436.81;5065564;28;20542;-72
2022/04/18 04:14:20;;;;;;;15.95;8.20;;;;;;;4.16;61.44;101432.56;5065438;28;20053;-72
2022/04/18 04:16:46;;;;;;;16.98;8.93;;;;;;;4.17;61.43;101436.88;5065247;28;20027;-72
2022/04/18 04:19:11;;;;;;;16.48;8.45;;;;;;;4.21;61.36;101435.28;5065361;28;20021;-72
2022/04/18 04:21:36;;;;;;;17.42;9.10;;;;;;;4.24;61.57;101429.38;5065466;28;20076;-71
2022/04/18 04:24:02;;;;;;;13.95;7.15;;;;;;;4.38;61.66;101429.88;5065578;28;20491;-73
2022/04/18 04:26:28;;;;;;;14.57;7.55;;;;;;;4.68;62.43;101424.84;5065264;28;20024;-72
2022/04/18 04:28:54;;;;;;;15.70;8.25;;;;;;;5.23;62.92;101418.81;5064795;28;20084;-71
2022/04/18 04:31:19;;;;;;;14.45;7.38;;;;;;;5.78;62.34;101417.78;5064981;28;20105;-72
2022/04/18 04:33:44;;;;;;;18.20;7.93;;;;;;;6.36;61.92;101424.50;5064834;28;20021;-71
2022/04/18 04:36:12;;;;;;;14.75;8.65;;;;;;;6.85;61.50;101416.19;5064130;28;20100;-71
2022/04/18 04:38:38;;;;;;;14.48;7.35;;;;;;;7.41;60.83;101413.13;5064344;28;20025;-72
2022/04/18 04:41:03;;;;;;;12.27;6.82;;;;;;;8.03;59.61;101415.19;5064942;28;20056;-72
2022/04/18 04:43:29;;;;;;;12.60;7.97;;;;;;;8.60;57.99;101409.25;5064728;28;20492;-71
2022/04/18 04:45:55;;;;;;;13.95;7.90;;;;;;;9.30;57.69;101412.84;5064566;28;20112;-71
2022/04/18 04:48:24;;;;;;;14.05;7.05;;;;;;;10.14;57.25;101415.53;5064748;28;20075;-71
2022/04/18 04:50:50;;;;;;;12.18;7.07;;;;;;;10.92;55.78;101408.38;5064791;28;20107;-71
2022/04/18 04:53:15;;;;;;;10.73;6.82;;;;;;;11.48;53.92;101406.06;5046789;28;20052;-72
2022/04/18 04:55:41;;;;;;;13.43;7.53;;;;;;;11.86;52.03;101404.44;5064903;28;20024;-72
2022/04/18 04:58:09;;;;;;;9.98;6.90;;;;;;;12.21;50.92;101408.00;5064803;28;20021;-71
2022/04/18 05:00:35;;;;;;;13.45;7.50;;;;;;;12.77;50.14;101400.19;5064606;28;20025;-72
2022/04/18 05:03:00;;;;;;;10.63;6.25;;;;;;;13.38;49.24;101402.63;5064569;28;20509;-71
2022/04/18 05:05:25;;;;;;;12.02;7.00;;;;;;;13.83;47.84;101396.34;5064823;28;20031;-72
2022/04/18 05:07:51;;;;;;;9.30;6.93;;;;;;;14.23;46.20;101402.16;5046503;28;20013;-72
2022/04/18 05:10:16;;;;;;;10.73;6.43;;;;;;;14.46;44.78;101407.19;5064252;28;20468;-71
2022/04/18 05:12:42;;;;;;;10.70;5.97;;;;;;;14.61;42.69;101402.69;5064429;28;20107;-72
2022/04/18 05:15:08;;;;;;;8.73;6.45;;;;;;;14.44;41.77;101397.63;5064046;28;20017;-71
2022/04/18 05:17:33;;;;;;;7.47;5.80;;;;;;;14.42;42.14;101397.66;5064198;28;20412;-72
2022/04/18 05:19:59;;;;;;;9.57;6.45;;;;;;;14.59;42.16;101389.66;5046166;28;20029;-72
2022/04/18 05:22:25;;;;;;;12.65;6.65;;;;;;;15.05;41.90;101391.84;5064271;28;20032;-72
2022/04/18 05:24:51;;;;;;;8.98;6.15;;;;;;;15.51;40.90;101387.75;5064088;28;20060;-72
2022/04/18 05:27:17;;;;;;;10.50;6.75;;;;;;;16.02;40.20;101388.84;5064019;28;20059;-73
2022/04/18 05:29:43;;;;;;;11.07;6.20;;;;;;;16.45;38.88;101395.09;5063954;28;20021;-73
2022/04/18 05:32:09;;;;;;;11.02;6.53;;;;;;;16.76;38.14;101392.84;5063958;28;20045;-73
2022/04/18 05:34:35;;;;;;;9.32;6.63;;;;;;;16.78;36.77;101393.66;5064019;28;20040;-71
2022/04/18 05:37:00;;;;;;;9.18;6.40;;;;;;;16.81;36.66;101397.09;5062638;28;20021;-72
2022/04/18 05:39:26;;;;;;;11.00;7.40;;;;;;;16.77;35.97;101391.94;5063768;28;20027;-71
2022/04/18 05:41:51;;;;;;;10.65;7.07;;;;;;;16.63;35.66;101397.44;5063699;28;20111;-71
2022/04/18 05:44:16;;;;;;;9.93;7.18;;;;;;;16.44;35.18;101390.75;5063678;28;20032;-72
2022/04/18 05:46:42;;;;;;;11.20;6.95;;;;;;;16.16;35.22;101380.75;5063862;28;20017;-72
2022/04/18 05:49:07;;;;;;;9.77;7.35;;;;;;;16.01;34.86;101384.47;5063718;28;20123;-72
2022/04/18 05:51:33;;;;;;;10.25;7.20;;;;;;;15.73;35.31;101385.72;5063798;28;20021;-73
2022/04/18 05:54:00;;;;;;;13.50;8.50;;;;;;;15.62;35.01;101374.56;5063729;28;20017;-73
2022/04/18 05:56:25;;;;;;;11.30;7.28;;;;;;;15.65;35.21;101390.22;5063810;28;20037;-73
2022/04/18 05:58:51;;;;;;;13.27;8.13;;;;;;;15.75;35.25;101398.78;5063360;28;20025;-71
2022/04/18 06:01:16;;;;;;;11.02;7.80;;;;;;;15.83;34.98;101390.84;5063607;28;20025;-72
2022/04/18 06:03:42;;;;;;;10.38;7.53;;;;;;;15.98;35.49;101387.13;5045543;28;20025;-73
2022/04/18 06:06:07;;;;;;;11.38;7.65;;;;;;;16.45;34.55;101381.16;5045687;28;20025;-72
2022/04/18 06:08:32;;;;;;;10.32;6.95;;;;;;;16.74;34.12;101377.16;5063641;28;20059;-72
2022/04/18 06:10:58;;;;;;;11.80;7.63;;;;;;;16.76;34.09;101383.22;5063143;28;20044;-72
2022/04/18 06:13:24;;;;;;;11.20;7.57;;;;;;;16.89;33.68;101368.09;5045281;28;20027;-71
2022/04/18 06:15:52;;;;;;;10.88;6.68;;;;;;;17.17;33.39;101371.97;5063047;28;20119;-72
2022/04/18 06:18:18;;;;;;;10.70;7.75;;;;;;;17.39;32.83;101379.38;5063279;28;20033;-71
2022/04/18 06:20:43;;;;;;;9.48;6.65;;;;;;;17.56;32.55;101379.00;5062975;28;20029;-71
2022/04/18 06:23:08;;;;;;;10.57;7.10;;;;;;;17.75;32.51;101381.25;5063100;28;20447;-72
2022/04/18 06:25:34;;;;;;;11.07;7.28;;;;;;;17.95;32.05;101378.13;5063167;28;20112;-72
2022/04/18 06:27:59;;;;;;;11.82;7.65;;;;;;;18.19;32.17;101383.72;5063014;28;20056;-72
2022/04/18 06:30:25;;;;;;;10.88;7.50;;;;;;;18.27;31.41;101375.66;5062889;28;20017;-71
2022/04/18 06:32:50;;;;;;;9.38;6.15;;;;;;;18.27;31.35;101381.78;5062431;28;20102;-71
2022/04/18 06:35:16;;;;;;;10.93;7.07;;;;;;;18.37;31.82;101386.78;5063029;28;20075;-71
2022/04/18 06:37:41;;;;;;;7.82;5.82;;;;;;;18.46;31.89;101376.03;5063015;28;20033;-71
2022/04/18 06:40:07;;;;;;;9.57;6.50;;;;;;;18.54;31.63;101381.97;5062643;28;20111;-71
2022/04/18 06:42:36;;;;;;;10.07;6.47;;;;;;;18.79;31.46;101372.53;5062926;28;20032;-71
2022/04/18 06:45:01;;;;;;;10.52;6.78;;;;;;;18.52;30.92;101375.88;5062559;28;20025;-69
2022/04/18 06:47:26;;;;;;;14.40;7.40;;;;;;;18.51;31.29;101375.91;5062903;28;20498;-70
2022/04/18 06:49:52;;;;;;;12.07;7.70;;;;;;;18.57;30.83;101371.38;5062746;28;20025;-70
2022/04/18 06:52:17;;;;;;;9.60;7.40;;;;;;;18.45;30.93;101374.31;5062715;28;20021;-70
2022/04/18 06:54:42;;;;;;;13.45;8.07;;;;;;;18.40;30.71;101365.69;5044585;28;20025;-69
2022/04/18 06:57:08;;;;;;;12.55;8.18;;;;;;;18.06;30.56;101357.72;5062711;28;20028;-70
2022/04/18 06:59:33;;;;;;;11.30;8.05;;;;;;;17.79;31.30;101362.75;5062608;28;20028;-70
2022/04/18 07:01:59;;;;;;;12.05;7.47;;;;;;;17.95;31.38;101371.13;5062529;28;20085;-71
2022/04/18 07:04:25;;;;;;;9.88;7.40;;;;;;;18.07;30.99;101372.59;5062873;28;20446;-70
2022/04/18 07:06:51;;;;;;;13.98;9.25;;;;;;;18.06;29.97;101364.75;5062869;28;20021;-70
2022/04/18 07:09:17;;;;;;;16.48;8.75;;;;;;;17.95;30.46;101371.13;5062466;28;20074;-70
2022/04/18 07:11:45;;;;;;;11.45;8.23;;;;;;;17.94;30.45;101372.00;5062462;28;20025;-70
2022/04/18 07:14:11;;;;;;;13.43;8.30;;;;;;;18.30;30.36;101365.06;5062420;28;20025;-71
2022/04/18 07:16:36;;;;;;;11.30;8.70;;;;;;;18.72;29.66;101366.59;5062571;28;20437;-71
2022/04/18 07:19:02;;;;;;;12.57;9.20;;;;;;;18.94;28.28;101373.88;5062566;28;20040;-71
2022/04/18 07:21:27;;;;;;;14.63;9.13;;;;;;;18.61;28.00;101368.66;5062537;28;20092;-72
2022/04/18 07:23:53;;;;;;;12.82;9.10;;;;;;;18.47;27.98;101359.34;5062687;28;20029;-72
2022/04/18 07:26:19;;;;;;;12.05;9.20;;;;;;;18.51;28.16;101353.13;5062433;28;20102;-72
2022/04/18 07:28:45;;;;;;;10.25;8.07;;;;;;;18.80;28.18;101363.75;5061499;28;20025;-71
2022/04/18 07:31:11;;;;;;;12.45;8.57;;;;;;;19.06;27.93;101356.88;5062073;28;20032;-71
2022/04/18 07:33:36;;;;;;;11.32;8.45;;;;;;;19.21;27.35;101345.06;5044392;28;20025;-72
2022/04/18 07:36:03;;;;;;;10.02;8.20;;;;;;;19.29;27.00;101350.97;5062393;28;20334;-72
2022/04/18 07:41:14;;;;;;;11.57;8.07;;;;;;;19.10;26.72;101357.69;5062150;28;20044;-72
2022/04/18 07:43:39;;;;;;;9.80;7.18;;;;;;;18.98;26.81;101345.72;5063880;28;20025;-72
2022/04/18 07:46:05;;;;;;;10.93;6.82;;;;;;;18.97;26.83;101355.38;5065655;28;20042;-72
2022/04/18 07:48:31;;;;;;;9.50;7.13;;;;;;;19.52;26.79;101352.03;5066086;28;20017;-72
2022/04/18 07:53:40;;;;;;;10.43;8.18;;;;;;;19.91;24.94;101345.53;5066158;28;20051;-69
2022/04/18 07:56:05;;;;;;;11.48;7.28;;;;;;;19.72;25.38;101345.28;5065953;28;20021;-73
2022/04/18 07:58:31;;;;;;;9.77;7.38;;;;;;;19.87;25.21;101346.53;5065934;28;20182;-74
2022/04/18 08:00:56;;;;;;;10.40;6.97;;;;;;;19.98;25.17;101347.97;5065844;28;20017;-74
2022/04/18 08:03:21;;;;;;;9.63;7.20;;;;;;;19.84;25.08;101346.63;5066017;28;20025;-68
2022/04/18 08:05:47;;;;;;;11.32;7.20;;;;;;;19.74;25.42;101346.09;5065604;28;20024;-70
2022/04/18 08:08:12;;;;;;;9.50;7.38;;;;;;;19.71;24.98;101335.66;5065386;28;20409;-71
2022/04/18 08:10:38;;;;;;;14.43;7.15;;;;;;;19.50;25.17;101338.06;5065082;28;20017;-70
2022/04/18 08:13:04;;;;;;;12.02;7.32;;;;;;;19.36;25.10;101333.19;5065204;28;20028;-71
2022/04/18 08:15:30;;;;;;;10.00;7.13;;;;;;;19.07;25.52;101319.13;5065278;28;20052;-74
2022/04/18 08:17:55;;;;;;;10.20;7.22;;;;;;;19.38;25.26;101344.56;5047651;28;20688;-68
2022/04/18 08:20:21;;;;;;;10.73;7.20;;;;;;;19.60;25.11;101337.78;5065208;28;20353;-63
2022/04/18 08:22:46;;;;;;;11.30;6.82;;;;;;;19.94;24.83;101334.91;5065347;28;20021;-71
2022/04/18 08:25:13;;;;;;;9.52;7.68;;;;;;;20.50;24.38;101337.44;5047361;28;20013;-71
2022/04/18 08:27:38;;;;;;;8.27;6.28;;;;;;;20.93;23.85;101328.91;5065271;28;20027;-74
2022/04/18 08:30:04;;;;;;;8.70;6.57;;;;;;;21.56;23.24;101335.31;5064833;28;20021;-72
2022/04/18 08:32:39;;;;;;;8.93;6.68;;;;;;;21.76;22.40;101331.84;5064873;28;20095;-71
2022/04/18 08:35:06;;;;;;;8.75;6.60;;;;;;;21.64;22.30;101329.72;5065156;28;20025;-73
2022/04/18 08:37:31;;;;;;;7.85;5.68;;;;;;;21.90;22.62;101331.31;5065182;28;20036;-65
2022/04/18 08:39:57;;;;;;;7.63;5.95;;;;;;;21.75;22.25;101330.16;5047127;28;20021;-72
2022/04/18 08:42:23;;;;;;;9.55;6.55;;;;;;;22.12;22.11;101329.56;5065274;28;20373;-74
2022/04/18 08:44:54;;;;;;;9.32;6.72;;;;;;;22.23;21.66;101327.31;5064722;28;20032;-70
2022/04/18 08:52:49;;;;;;;11.52;6.30;;;;;;;22.26;21.64;101313.94;5064971;28;20082;-73
2022/04/18 08:55:16;;;;;;;9.00;6.82;;;;;;;21.99;21.28;101316.84;5064350;28;20053;-73
2022/04/18 08:57:42;;;;;;;9.68;6.85;;;;;;;21.73;21.97;101317.91;5064825;28;20025;-73
2022/04/18 09:00:08;;;;;;;11.23;6.47;;;;;;;21.78;21.86;101319.47;5063866;28;20017;-75
2022/04/18 09:02:33;;;;;;;7.82;6.93;;;;;;;21.77;21.66;101319.53;5064833;28;20407;-75
2022/04/18 09:04:59;;;;;;;8.43;6.38;;;;;;;21.53;21.26;101325.72;5064511;28;20435;-75
2022/04/18 09:07:24;;;;;;;7.88;6.53;;;;;;;21.22;21.96;101321.66;5064968;28;20027;-75
2022/04/18 09:09:55;;;;;;;9.25;6.60;;;;;;;21.50;21.62;101309.97;5046489;28;20025;-76
2022/04/18 09:12:23;;;;;;;7.85;6.15;;;;;;;21.69;21.35;101314.53;5047469;28;20021;-74
2022/04/18 09:14:48;;;;;;;11.45;6.85;;;;;;;21.62;20.91;101313.06;5064759;28;20020;-76
2022/04/18 09:17:33;;;;;;;7.63;6.38;;;;;;;21.44;21.31;101315.50;5064420;28;20084;-75
2022/04/18 09:20:06;;;;;;;9.77;7.00;;;;;;;21.48;21.66;101316.25;5070655;28;20017;-74
2022/04/18 09:22:43;;;;;;;8.73;6.93;;;;;;;21.59;21.82;101307.91;5068876;28;20028;-76
2022/04/18 09:25:27;;;;;;;9.68;6.82;;;;;;;21.64;21.29;101298.00;5065407;28;20024;-74
2022/04/18 09:27:52;;;;;;;9.38;6.15;;;;;;;21.46;21.61;101303.13;5047827;28;20120;-74
2022/04/18 09:30:17;;;;;;;7.72;5.70;;;;;;;21.58;21.27;101303.53;5064280;28;20017;-75
2022/04/18 09:33:03;;;;;;;9.43;6.25;;;;;;;21.70;21.47;101296.88;5064162;28;20104;-75
2022/04/18 09:35:30;;;;;;;6.55;5.25;;;;;;;22.04;20.87;101298.16;5064361;28;20048;-75
2022/04/18 09:38:06;;;;;;;7.53;5.78;;;;;;;22.52;20.57;101293.41;5064364;28;20078;-76
2022/04/18 09:40:41;;;;;;;9.55;6.65;;;;;;;22.67;19.90;101283.09;5046447;28;20021;-75
2022/04/18 09:43:06;;;;;;;9.35;5.82;;;;;;;22.59;19.64;101277.28;5064137;28;20051;-75
2022/04/18 09:45:32;;;;;;;8.68;6.68;;;;;;;22.49;19.74;101282.13;5064145;28;20029;-75
2022/04/18 09:48:02;;;;;;;7.20;5.78;;;;;;;22.59;19.88;101279.91;5046288;28;20475;-76
2022/04/18 09:51:02;;;;;;;12.57;6.32;;;;;;;22.40;19.34;101272.78;5045727;28;20017;-76
2022/04/18 09:53:22;;;;;;;8.57;6.20;;;;;;;21.97;20.06;101276.41;5059176;28;20037;-75
2022/04/18 09:55:50;;;;;;;11.52;6.13;;;;;;;22.19;20.26;101264.03;5064018;28;20023;-74
2022/04/18 09:58:16;;;;;;;6.53;5.03;;;;;;;22.88;19.55;101259.19;5046093;28;20029;-76
2022/04/18 10:00:42;;;;;;;6.10;5.50;;;;;;;23.28;19.31;101269.69;5063662;28;20124;-76
2022/04/18 10:03:11;;;;;;;7.85;5.82;;;;;;;23.94;18.98;101271.78;5063702;28;20330;-75
2022/04/18 10:05:39;;;;;;;7.32;5.63;;;;;;;23.83;17.85;101259.09;5063239;28;20113;-77
2022/04/18 10:08:05;;;;;;;7.18;5.70;;;;;;;23.41;17.71;101267.31;5062020;28;20063;-77
2022/04/18 10:10:35;;;;;;;8.45;5.43;;;;;;;23.02;18.09;101258.53;5063519;28;20020;-76
2022/04/18 10:13:03;;;;;;;7.80;5.75;;;;;;;23.06;18.50;101257.47;5063661;28;20020;-76
2022/04/18 10:15:29;;;;;;;5.93;4.57;;;;;;;23.51;18.66;101260.63;5063313;28;20031;-77
2022/04/18 10:17:55;;;;;;;6.20;5.18;;;;;;;23.80;17.50;101253.94;5062843;28;20028;-74
2022/04/18 10:20:45;;;;;;;5.82;4.40;;;;;;;23.30;17.14;101251.06;5062259;28;20495;-74
2022/04/18 10:23:26;;;;;;;5.05;4.30;;;;;;;23.36;17.03;101246.31;5063550;28;20111;-75
2022/04/18 10:26:22;;;;;;;5.93;4.00;;;;;;;23.35;16.55;101260.50;5063515;28;20364;-74
2022/04/18 10:28:50;;;;;;;5.43;4.35;;;;;;;22.91;17.25;101253.75;5045314;28;20021;-75
2022/04/18 10:31:20;;;;;;;5.03;3.78;;;;;;;22.97;17.60;101247.34;5063123;28;20017;-75
2022/04/18 10:33:46;;;;;;;7.22;4.40;;;;;;;22.91;18.05;101259.06;5045521;28;20036;-74
2022/04/18 10:36:12;;;;;;;6.63;4.13;;;;;;;22.77;18.22;101244.69;5045282;28;20025;-75
2022/04/18 10:39:05;;;;;;;3.97;3.33;;;;;;;22.37;18.54;101246.47;5063421;28;20100;-77
2022/04/18 10:41:42;;;;;;;6.80;4.80;;;;;;;22.38;18.29;101243.75;5061635;28;20029;-75
2022/04/18 10:44:10;;;;;;;7.47;4.40;;;;;;;21.99;17.58;101240.19;5063479;28;20017;-75
2022/04/18 10:46:58;;;;;;;5.22;4.07;;;;;;;21.98;18.55;101245.56;5063422;28;20031;-74
2022/04/18 10:49:24;;;;;;;5.30;4.30;;;;;;;22.24;17.93;101244.38;5062552;28;20059;-75
2022/04/18 10:51:52;;;;;;;6.28;3.80;;;;;;;22.43;17.90;101240.06;5044952;28;20020;-74
2022/04/18 10:54:21;;;;;;;7.78;3.72;;;;;;;22.57;17.89;101239.44;5063023;28;20017;-75
2022/04/18 10:57:11;;;;;;;4.95;3.83;;;;;;;22.78;17.70;101249.03;5044865;28;20017;-75
2022/04/18 10:59:45;;;;;;;5.57;4.00;;;;;;;23.20;17.71;101240.03;5062999;28;20369;-75
2022/04/18 11:02:41;;;;;;;7.00;4.28;;;;;;;23.51;17.45;101235.94;5062913;28;20021;-75
2022/04/18 11:05:07;;;;;;;6.47;3.97;;;;;;;23.87;16.88;101228.81;5044669;28;20036;-73
2022/04/18 11:07:40;;;;;;;4.95;3.67;;;;;;;24.09;16.58;101233.84;5063093;28;20536;-74
2022/04/18 11:10:20;;;;;;;5.15;3.42;;;;;;;24.20;16.07;101225.34;5062563;28;20536;-76
2022/04/18 11:12:46;;;;;;;4.60;3.67;;;;;;;24.43;15.92;101235.66;5062855;28;20035;-74
2022/04/18 11:15:12;;;;;;;4.95;4.25;;;;;;;24.41;15.67;101226.97;5044344;28;20088;-76
2022/04/18 11:17:40;;;;;;;5.55;3.95;;;;;;;24.33;15.80;101224.72;5064350;28;20148;-75
2022/04/18 11:20:24;;;;;;;6.32;4.45;;;;;;;24.50;15.54;101221.16;5066546;28;20025;-76
2022/04/18 11:23:27;;;;;;;5.90;3.65;;;;;;;24.79;15.70;101229.31;5048757;28;20021;-76
2022/04/18 11:25:55;;;;;;;6.57;4.10;;;;;;;24.73;16.15;101219.00;5066554;28;20032;-77
2022/04/18 11:28:21;;;;;;;4.95;3.80;;;;;;;24.08;16.42;101221.53;5065544;28;20021;-75
2022/04/18 11:30:46;;;;;;;5.68;3.95;;;;;;;23.57;16.64;101229.44;5047612;28;20028;-77
2022/04/18 11:33:12;;;;;;;5.38;3.20;;;;;;;23.07;17.21;101219.47;5066353;28;20060;-76
2022/04/18 11:35:37;;;;;;;4.43;3.72;;;;;;;22.26;17.26;101213.44;5048253;28;20088;-76
2022/04/18 11:38:10;;;;;;;5.97;3.75;;;;;;;21.39;18.12;101217.97;5066816;28;20093;-75
2022/04/18 11:40:38;;;;;;;7.63;4.18;;;;;;;20.48;18.76;101214.47;5048219;28;20041;-76
2022/04/18 11:43:15;;;;;;;6.05;4.50;;;;;;;19.54;19.69;101221.16;5066285;28;20035;-76